Time;durP1;ratioP1;P1;durP2;ratioP2;P2;SDS_P1;SDS_P2;PMS_P1;PMS_P2;Temp;Humidity;BMP_temperature;BMP_pressure;BME280_temperature;BME280_humidity;BME280_pressure;Samples;Min_cycle;Max_cycle;Signal;HPM_P1;HPM_P2
2022/08/01 00:00:24;;;;;;;6.97;2.40;;;25.70;75.20;;;;;;6245782;23;20083;-75
2022/08/01 00:02:50;;;;;;;4.75;2.47;;;25.70;75.70;;;;;;6247075;23;20426;-70
2022/08/01 00:05:16;;;;;;;6.97;2.22;;;25.60;76.00;;;;;;6246913;23;20001;-71
2022/08/01 00:07:42;;;;;;;4.25;2.38;;;25.70;76.10;;;;;;6246769;22;20000;-74
2022/08/01 00:10:13;;;;;;;5.45;2.55;;;25.60;76.20;;;;;;6246874;23;20004;-71
2022/08/01 00:12:40;;;;;;;5.30;2.20;;;25.60;76.20;;;;;;6247159;22;20013;-71
2022/08/01 00:15:08;;;;;;;3.42;2.15;;;25.60;76.10;;;;;;6247334;22;20027;-71
2022/08/01 00:17:34;;;;;;;4.07;1.92;;;25.60;75.90;;;;;;6246939;22;20051;-74
2022/08/01 00:20:00;;;;;;;7.15;2.50;;;25.60;76.40;;;;;;6246359;23;20019;-75
2022/08/01 00:22:25;;;;;;;3.47;2.00;;;25.60;76.50;;;;;;6247014;22;20381;-72
2022/08/01 00:24:51;;;;;;;4.20;2.42;;;25.60;76.20;;;;;;6246864;23;20362;-73
2022/08/01 00:27:19;;;;;;;6.78;2.50;;;25.60;75.90;;;;;;6246668;23;20019;-71
2022/08/01 00:29:45;;;;;;;4.20;2.40;;;25.60;75.90;;;;;;6246718;23;20007;-70
2022/08/01 00:32:10;;;;;;;5.05;2.78;;;25.60;75.90;;;;;;6247050;23;20015;-75
2022/08/01 00:34:36;;;;;;;5.03;2.22;;;25.50;76.30;;;;;;6246664;23;20115;-75
2022/08/01 00:37:02;;;;;;;7.45;2.20;;;25.50;76.80;;;;;;6246590;23;20007;-75
2022/08/01 00:39:27;;;;;;;5.90;2.63;;;25.50;76.80;;;;;;6246660;22;20438;-72
2022/08/01 00:41:53;;;;;;;5.45;2.55;;;25.50;76.70;;;;;;6246722;23;20008;-75
2022/08/01 00:44:21;;;;;;;4.53;2.50;;;25.50;76.70;;;;;;6246403;23;19996;-75
2022/08/01 00:46:47;;;;;;;6.03;2.50;;;25.50;76.80;;;;;;6246595;23;20000;-71
2022/08/01 00:49:13;;;;;;;3.53;2.35;;;25.50;77.20;;;;;;6246775;23;20008;-74
2022/08/01 00:51:39;;;;;;;4.68;2.50;;;25.40;77.10;;;;;;6246868;22;20030;-75
2022/08/01 00:54:04;;;;;;;4.20;2.38;;;25.40;77.40;;;;;;6246431;23;19997;-74
2022/08/01 00:56:30;;;;;;;5.97;2.50;;;25.40;77.30;;;;;;6246331;23;20011;-70
2022/08/01 00:58:56;;;;;;;7.18;2.95;;;25.40;77.70;;;;;;6243758;22;20025;-74
2022/08/01 01:01:22;;;;;;;3.65;2.38;;;25.40;77.90;;;;;;6243108;23;20461;-73
2022/08/01 01:03:50;;;;;;;7.63;2.53;;;25.30;77.90;;;;;;6243250;22;20004;-71
2022/08/01 01:06:34;;;;;;;5.43;2.50;;;25.40;78.10;;;;;;6246440;22;20012;-72
2022/08/01 01:09:17;;;;;;;3.40;2.00;;;25.40;78.80;;;;;;6246638;22;20328;-74
2022/08/01 01:12:10;;;;;;;7.82;2.28;;;25.40;78.20;;;;;;6246355;22;20004;-75
2022/08/01 01:14:56;;;;;;;3.70;2.20;;;25.40;77.70;;;;;;6245932;23;20004;-74
2022/08/01 01:17:31;;;;;;;2.92;2.50;;;25.30;77.00;;;;;;6246178;22;20030;-75
2022/08/01 01:20:00;;;;;;;3.38;2.38;;;25.30;76.70;;;;;;6246115;22;20372;-71
2022/08/01 01:22:57;;;;;;;4.57;2.30;;;25.30;76.70;;;;;;6246325;22;20478;-71
2022/08/01 01:25:28;;;;;;;4.72;2.42;;;25.30;76.80;;;;;;6246279;22;20023;-75
2022/08/01 01:28:17;;;;;;;3.38;2.35;;;25.30;77.00;;;;;;6245870;23;20016;-76
2022/08/01 01:30:46;;;;;;;5.82;2.08;;;25.30;76.70;;;;;;6246247;23;20008;-74
2022/08/01 01:33:14;;;;;;;6.78;2.20;;;25.30;76.20;;;;;;6245529;22;20000;-70
2022/08/01 01:35:46;;;;;;;6.28;2.20;;;25.30;76.00;;;;;;6245718;22;20027;-71
2022/08/01 01:38:26;;;;;;;5.63;2.42;;;25.30;76.40;;;;;;6246267;22;20008;-72
2022/08/01 01:40:53;;;;;;;7.43;2.22;;;25.20;76.60;;;;;;6246278;22;20012;-75
2022/08/01 01:43:20;;;;;;;3.70;2.20;;;25.20;76.70;;;;;;6246072;22;20011;-71
2022/08/01 01:45:47;;;;;;;2.65;1.90;;;25.20;76.60;;;;;;6246257;22;20023;-74
2022/08/01 01:48:16;;;;;;;6.38;1.98;;;25.20;76.30;;;;;;6246160;22;20019;-76
2022/08/01 01:50:45;;;;;;;3.65;2.08;;;25.20;76.50;;;;;;6246451;22;20000;-75
2022/08/01 01:53:13;;;;;;;3.47;2.08;;;25.20;76.30;;;;;;6245938;22;20131;-74
2022/08/01 01:55:40;;;;;;;2.45;1.85;;;25.20;76.10;;;;;;6245823;22;20000;-75
2022/08/01 01:58:08;;;;;;;3.97;1.88;;;25.10;76.00;;;;;;6245942;22;20011;-71
2022/08/01 02:00:36;;;;;;;5.95;2.28;;;25.10;76.10;;;;;;6245600;22;20023;-71
2022/08/01 02:03:05;;;;;;;9.45;2.30;;;25.00;75.70;;;;;;6246071;22;20009;-74
2022/08/01 02:05:34;;;;;;;4.57;2.15;;;25.00;75.40;;;;;;6246341;22;20008;-75
2022/08/01 02:08:01;;;;;;;4.65;1.85;;;25.00;75.20;;;;;;6245911;22;20508;-75
2022/08/01 02:10:29;;;;;;;4.32;2.20;;;25.00;75.20;;;;;;6246002;22;20000;-70
2022/08/01 02:12:57;;;;;;;6.13;2.50;;;25.00;75.60;;;;;;6245541;22;20031;-74
2022/08/01 02:15:23;;;;;;;6.35;2.15;;;24.90;75.60;;;;;;6246006;22;20011;-75
2022/08/01 02:17:50;;;;;;;3.75;2.28;;;24.80;75.70;;;;;;6245869;22;20004;-71
2022/08/01 02:20:16;;;;;;;6.97;2.33;;;24.90;75.90;;;;;;6245606;22;20004;-71
2022/08/01 02:22:52;;;;;;;5.25;2.45;;;24.80;75.90;;;;;;6245579;23;20079;-71
2022/08/01 02:25:23;;;;;;;3.08;2.03;;;24.80;76.20;;;;;;6245645;22;20000;-71
2022/08/01 02:28:09;;;;;;;3.28;2.03;;;24.80;76.30;;;;;;6245575;22;20040;-74
2022/08/01 02:30:38;;;;;;;3.08;2.20;;;24.80;76.40;;;;;;6245483;22;20007;-75
2022/08/01 02:33:27;;;;;;;6.53;2.47;;;24.70;76.30;;;;;;6245878;22;20005;-72
2022/08/01 02:35:57;;;;;;;2.92;1.90;;;24.70;76.10;;;;;;6245372;22;20084;-75
2022/08/01 02:38:27;;;;;;;5.90;1.80;;;24.70;76.10;;;;;;6245337;22;20011;-75
2022/08/01 02:40:57;;;;;;;2.22;1.88;;;24.70;76.10;;;;;;6245738;22;20166;-75
2022/08/01 02:43:27;;;;;;;3.88;2.00;;;24.60;75.80;;;;;;6245607;22;20008;-75
2022/08/01 02:46:00;;;;;;;4.80;2.10;;;24.60;75.50;;;;;;6245577;22;20040;-71
2022/08/01 02:48:27;;;;;;;3.53;2.35;;;24.60;75.30;;;;;;6245536;22;20425;-73
2022/08/01 02:50:55;;;;;;;7.85;1.98;;;24.60;75.40;;;;;;6245428;22;20000;-75
2022/08/01 02:53:23;;;;;;;6.05;2.00;;;24.50;75.90;;;;;;6245438;22;20447;-71
2022/08/01 02:55:51;;;;;;;3.25;2.38;;;24.50;76.20;;;;;;6245726;22;20004;-70
2022/08/01 02:58:19;;;;;;;4.38;2.17;;;24.50;76.20;;;;;;6245747;22;19996;-70
2022/08/01 03:00:46;;;;;;;3.78;1.77;;;24.50;76.20;;;;;;6245421;22;20008;-75
2022/08/01 03:03:13;;;;;;;5.63;2.13;;;24.50;76.20;;;;;;6245830;22;20331;-75
2022/08/01 03:05:40;;;;;;;4.93;2.00;;;24.40;76.40;;;;;;6245305;22;20446;-75
2022/08/01 03:08:08;;;;;;;2.40;1.80;;;24.40;76.50;;;;;;6245587;22;19996;-75
2022/08/01 03:10:36;;;;;;;7.82;2.30;;;24.30;76.40;;;;;;6245172;22;20008;-71
2022/08/01 03:13:05;;;;;;;7.30;1.77;;;24.30;76.70;;;;;;6245155;22;20083;-71
2022/08/01 03:15:33;;;;;;;5.20;2.22;;;24.30;76.70;;;;;;6245607;22;20431;-75
2022/08/01 03:18:00;;;;;;;7.03;1.95;;;24.30;76.70;;;;;;6245455;22;20356;-75
2022/08/01 03:20:29;;;;;;;4.97;2.30;;;24.20;77.00;;;;;;6245521;22;20095;-75
2022/08/01 03:22:59;;;;;;;3.38;2.03;;;24.20;77.10;;;;;;6245147;22;19996;-70
2022/08/01 03:25:27;;;;;;;6.65;2.20;;;24.20;77.30;;;;;;6245608;22;20015;-75
2022/08/01 03:27:56;;;;;;;6.38;2.30;;;24.20;77.30;;;;;;6244845;22;20027;-75
2022/08/01 03:30:24;;;;;;;4.93;2.38;;;24.20;77.30;;;;;;6245255;22;20058;-75
2022/08/01 03:32:51;;;;;;;8.73;2.30;;;24.20;77.30;;;;;;6245488;22;20000;-72
2022/08/01 03:35:17;;;;;;;6.63;2.33;;;24.20;77.50;;;;;;6246287;22;20012;-74
2022/08/01 03:37:47;;;;;;;10.90;2.33;;;24.20;77.20;;;;;;6247568;23;20011;-74
2022/08/01 03:40:28;;;;;;;7.78;2.45;;;24.10;77.10;;;;;;6247195;22;20004;-75
2022/08/01 03:43:02;;;;;;;6.53;2.70;;;24.10;77.10;;;;;;6247577;22;20011;-75
2022/08/01 03:45:34;;;;;;;3.25;2.10;;;24.10;77.10;;;;;;6247480;22;20071;-75
2022/08/01 03:48:03;;;;;;;4.00;2.50;;;24.10;77.10;;;;;;6247817;22;20054;-74
2022/08/01 03:50:33;;;;;;;3.22;2.15;;;24.10;77.20;;;;;;6247689;22;20063;-70
2022/08/01 03:53:01;;;;;;;4.63;2.30;;;24.00;77.10;;;;;;6247431;22;20090;-75
2022/08/01 03:55:29;;;;;;;3.35;2.25;;;24.00;77.20;;;;;;6247365;22;20000;-70
2022/08/01 03:57:56;;;;;;;6.65;2.28;;;24.00;77.20;;;;;;6247001;22;20049;-74
2022/08/01 04:00:23;;;;;;;6.72;2.33;;;24.00;77.00;;;;;;6247086;22;20077;-74
2022/08/01 04:02:50;;;;;;;5.82;2.08;;;24.00;76.90;;;;;;6246882;22;20089;-76
2022/08/01 04:05:17;;;;;;;4.10;2.10;;;24.00;77.00;;;;;;6246900;22;20003;-75
2022/08/01 04:07:47;;;;;;;7.28;2.10;;;23.90;77.20;;;;;;6247268;22;20019;-76
2022/08/01 04:10:13;;;;;;;5.35;2.00;;;23.90;77.10;;;;;;6246968;22;20518;-76
2022/08/01 04:12:39;;;;;;;5.80;2.20;;;23.90;77.20;;;;;;6246885;23;20027;-76
2022/08/01 04:15:05;;;;;;;4.00;2.00;;;23.90;77.00;;;;;;6247092;23;20377;-75
2022/08/01 04:17:31;;;;;;;3.58;2.00;;;23.90;77.00;;;;;;6247003;22;20004;-74
2022/08/01 04:19:57;;;;;;;5.63;2.30;;;23.90;76.50;;;;;;6246563;23;20069;-76
2022/08/01 04:22:23;;;;;;;4.28;1.92;;;23.90;76.40;;;;;;6246841;22;20012;-73
2022/08/01 04:24:53;;;;;;;3.42;1.90;;;23.90;75.90;;;;;;6247353;23;20032;-75
2022/08/01 04:27:28;;;;;;;6.70;1.98;;;23.90;75.60;;;;;;6246879;22;20103;-75
2022/08/01 04:29:57;;;;;;;5.07;2.00;;;23.90;75.80;;;;;;6247043;22;19996;-71
2022/08/01 04:32:25;;;;;;;8.85;2.67;;;23.90;75.70;;;;;;6247198;22;20334;-71
2022/08/01 04:34:52;;;;;;;7.05;1.95;;;23.80;75.70;;;;;;6246775;22;19996;-71
2022/08/01 04:37:19;;;;;;;4.25;2.05;;;23.80;75.90;;;;;;6246694;22;20431;-71
2022/08/01 04:39:46;;;;;;;4.43;2.10;;;23.80;76.70;;;;;;6247025;22;20011;-71
2022/08/01 04:42:15;;;;;;;4.90;2.08;;;23.80;76.00;;;;;;6246516;22;20443;-71
2022/08/01 04:44:41;;;;;;;5.15;1.92;;;23.80;75.80;;;;;;6246927;22;20376;-71
2022/08/01 04:47:08;;;;;;;4.55;1.83;;;23.80;75.10;;;;;;6246455;22;20008;-71
2022/08/01 04:49:34;;;;;;;5.75;2.10;;;23.80;74.80;;;;;;6246684;22;20470;-71
2022/08/01 04:52:00;;;;;;;2.63;1.70;;;23.80;75.00;;;;;;6246966;23;20071;-71
2022/08/01 04:54:27;;;;;;;6.80;2.35;;;23.90;74.40;;;;;;6246164;22;20084;-71
2022/08/01 04:56:58;;;;;;;4.82;1.95;;;23.90;74.40;;;;;;6246802;22;20012;-69
2022/08/01 04:59:39;;;;;;;6.13;2.30;;;23.90;74.50;;;;;;6246740;22;20004;-71
2022/08/01 05:02:12;;;;;;;7.65;2.00;;;23.90;74.30;;;;;;6246673;23;20008;-70
2022/08/01 05:04:39;;;;;;;2.25;1.85;;;23.90;74.20;;;;;;6246959;22;20316;-71
2022/08/01 05:07:06;;;;;;;5.38;2.47;;;24.00;74.20;;;;;;6246370;22;20039;-71
2022/08/01 05:09:33;;;;;;;3.40;1.88;;;24.00;74.00;;;;;;6244919;23;20004;-71
2022/08/01 05:12:01;;;;;;;7.78;1.77;;;24.00;73.70;;;;;;6246306;22;20000;-71
2022/08/01 05:14:28;;;;;;;5.78;1.85;;;24.00;72.90;;;;;;6246826;22;20016;-71
2022/08/01 05:16:54;;;;;;;4.43;1.80;;;24.10;72.70;;;;;;6246425;22;20004;-70
2022/08/01 05:19:21;;;;;;;4.53;1.70;;;24.20;72.80;;;;;;6246529;22;20007;-71
2022/08/01 05:21:47;;;;;;;5.40;1.98;;;24.20;72.80;;;;;;6246282;22;20016;-71
2022/08/01 05:24:15;;;;;;;5.75;2.00;;;24.20;72.60;;;;;;6246101;23;20006;-73
2022/08/01 05:26:41;;;;;;;3.97;2.03;;;24.30;72.20;;;;;;6246128;23;20023;-71
2022/08/01 05:29:06;;;;;;;7.32;1.65;;;24.30;71.90;;;;;;6246239;23;20071;-72
2022/08/01 05:31:34;;;;;;;2.85;1.98;;;24.30;71.50;;;;;;6246262;23;20000;-70
2022/08/01 05:34:01;;;;;;;3.47;1.80;;;24.30;71.40;;;;;;6246351;23;20046;-71
2022/08/01 05:36:27;;;;;;;3.15;1.48;;;24.40;71.30;;;;;;6246527;22;20008;-71
2022/08/01 05:38:52;;;;;;;5.55;1.60;;;24.50;71.20;;;;;;6246585;22;20073;-70
2022/08/01 05:41:18;;;;;;;6.15;1.60;;;24.50;71.00;;;;;;6246271;23;20019;-70
2022/08/01 05:43:44;;;;;;;2.78;1.50;;;24.50;70.90;;;;;;6246449;23;20421;-70
2022/08/01 05:46:09;;;;;;;6.20;1.90;;;24.50;70.90;;;;;;6246424;22;20020;-70
2022/08/01 05:48:35;;;;;;;4.38;1.90;;;24.50;70.80;;;;;;6245768;22;20008;-69
2022/08/01 05:51:01;;;;;;;3.60;1.60;;;24.60;70.70;;;;;;6245942;23;20000;-71
2022/08/01 05:53:27;;;;;;;4.93;1.80;;;24.60;70.50;;;;;;6246086;22;20008;-71
2022/08/01 05:55:52;;;;;;;2.53;1.90;;;24.70;70.10;;;;;;6246227;22;20004;-71
2022/08/01 05:58:18;;;;;;;3.58;1.50;;;24.70;69.80;;;;;;6245777;22;20142;-70
2022/08/01 06:00:44;;;;;;;3.80;1.98;;;24.80;69.80;;;;;;6245878;23;20095;-71
2022/08/01 06:03:11;;;;;;;5.30;1.80;;;24.80;70.00;;;;;;6245613;22;20004;-70
2022/08/01 06:05:37;;;;;;;5.53;1.92;;;24.90;69.80;;;;;;6245837;22;20001;-71
2022/08/01 06:08:03;;;;;;;3.45;1.90;;;24.90;69.60;;;;;;6246210;22;20028;-70
2022/08/01 06:10:29;;;;;;;6.43;1.52;;;25.00;69.40;;;;;;6246046;22;20035;-71
2022/08/01 06:12:54;;;;;;;2.58;1.58;;;25.00;69.00;;;;;;6245937;23;20446;-71
2022/08/01 06:15:21;;;;;;;3.10;1.52;;;25.10;68.80;;;;;;6245777;23;20004;-71
2022/08/01 06:17:46;;;;;;;3.35;1.63;;;25.10;68.30;;;;;;6245848;22;20063;-70
2022/08/01 06:20:12;;;;;;;4.05;1.40;;;25.20;67.80;;;;;;6245487;23;20012;-71
2022/08/01 06:22:38;;;;;;;4.88;1.73;;;25.20;66.90;;;;;;6245536;23;20058;-70
2022/08/01 06:25:04;;;;;;;2.65;1.30;;;25.20;66.30;;;;;;6245706;22;19996;-70
2022/08/01 06:27:30;;;;;;;4.32;1.55;;;25.20;66.00;;;;;;6245625;23;20359;-72
2022/08/01 06:29:56;;;;;;;10.20;1.92;;;25.20;66.00;;;;;;6245736;23;20011;-71
2022/08/01 06:32:22;;;;;;;4.72;1.88;;;25.20;66.10;;;;;;6246070;22;20039;-72
2022/08/01 06:34:48;;;;;;;6.50;2.03;;;25.30;66.30;;;;;;6245768;22;20050;-71
2022/08/01 06:37:14;;;;;;;5.93;1.65;;;25.30;66.20;;;;;;6246294;22;20013;-73
2022/08/01 06:39:40;;;;;;;5.10;1.45;;;25.30;66.20;;;;;;6245695;22;20062;-70
2022/08/01 06:42:05;;;;;;;8.43;1.70;;;25.40;65.80;;;;;;6245700;23;20312;-70
2022/08/01 06:44:31;;;;;;;6.55;1.90;;;25.50;65.60;;;;;;6245514;23;20407;-70
2022/08/01 06:47:00;;;;;;;5.03;1.60;;;25.50;65.50;;;;;;6245464;23;20423;-70
2022/08/01 06:49:26;;;;;;;3.13;1.88;;;25.60;65.40;;;;;;6246060;23;20078;-70
2022/08/01 06:51:51;;;;;;;8.60;1.58;;;25.70;65.20;;;;;;6245259;23;20074;-70
2022/08/01 06:54:17;;;;;;;5.35;1.52;;;25.80;65.20;;;;;;6246079;23;20009;-70
2022/08/01 06:56:43;;;;;;;3.83;1.60;;;25.80;64.60;;;;;;6246312;22;20038;-72
2022/08/01 06:59:09;;;;;;;6.47;1.40;;;25.80;63.50;;;;;;6245857;23;20315;-73
2022/08/01 07:01:52;;;;;;;3.30;1.50;;;25.90;63.00;;;;;;6245788;23;20526;-71
2022/08/01 07:04:17;;;;;;;3.72;1.33;;;26.00;61.90;;;;;;6245363;22;20296;-70
2022/08/01 07:06:43;;;;;;;3.03;1.30;;;26.00;61.70;;;;;;6244613;23;20004;-71
2022/08/01 07:09:09;;;;;;;2.70;1.48;;;26.10;61.90;;;;;;6245235;23;20011;-74
2022/08/01 07:11:34;;;;;;;3.95;1.50;;;26.10;61.80;;;;;;6245507;23;20218;-74
2022/08/01 07:14:00;;;;;;;4.45;1.45;;;26.20;61.20;;;;;;6245381;23;20004;-70
2022/08/01 07:16:26;;;;;;;5.20;1.45;;;26.30;61.20;;;;;;6245953;22;20012;-70
2022/08/01 07:18:52;;;;;;;4.97;1.58;;;26.30;61.10;;;;;;6246064;22;20087;-70
2022/08/01 07:21:17;;;;;;;1.48;1.30;;;26.40;60.80;;;;;;6245515;23;20381;-70
2022/08/01 07:23:43;;;;;;;2.47;1.30;;;26.50;60.60;;;;;;6245651;23;20326;-70
2022/08/01 07:26:09;;;;;;;2.85;1.00;;;26.50;60.20;;;;;;6245659;23;20004;-74
2022/08/01 07:28:34;;;;;;;3.70;1.23;;;26.60;59.70;;;;;;6245545;23;20016;-74
2022/08/01 07:31:00;;;;;;;2.88;1.30;;;26.70;59.40;;;;;;6245921;23;20008;-70
2022/08/01 07:33:25;;;;;;;2.05;1.20;;;26.70;59.30;;;;;;6245746;22;20426;-72
2022/08/01 07:35:51;;;;;;;7.63;1.65;;;26.80;59.10;;;;;;6245230;23;20028;-69
2022/08/01 07:38:17;;;;;;;1.13;1.00;;;26.90;58.90;;;;;;6245641;22;20004;-69
2022/08/01 07:40:44;;;;;;;2.33;1.30;;;27.00;59.00;;;;;;6245931;23;20024;-70
2022/08/01 07:43:09;;;;;;;2.90;1.60;;;27.10;58.90;;;;;;6245544;22;20000;-69
2022/08/01 07:45:35;;;;;;;5.35;1.42;;;27.20;58.20;;;;;;6245869;22;20008;-70
2022/08/01 07:48:04;;;;;;;3.42;1.58;;;27.20;57.30;;;;;;6245733;23;20006;-70
2022/08/01 07:50:30;;;;;;;2.42;1.55;;;27.30;57.00;;;;;;6245795;22;20026;-70
2022/08/01 07:52:56;;;;;;;1.55;1.20;;;27.30;56.90;;;;;;6245671;23;20028;-70
2022/08/01 07:55:21;;;;;;;3.42;1.20;;;27.40;56.60;;;;;;6245616;23;20335;-70
2022/08/01 07:57:47;;;;;;;3.90;1.33;;;27.40;55.80;;;;;;6245455;23;19996;-70
2022/08/01 08:00:13;;;;;;;3.03;1.30;;;27.40;55.20;;;;;;6246013;22;20012;-72
2022/08/01 08:02:39;;;;;;;1.80;1.20;;;27.50;55.40;;;;;;6246038;22;20018;-70
2022/08/01 08:05:07;;;;;;;3.88;1.10;;;27.50;55.60;;;;;;6245965;23;20031;-74
2022/08/01 08:07:32;;;;;;;2.08;1.17;;;27.50;55.40;;;;;;6245822;22;20078;-70
2022/08/01 08:10:01;;;;;;;4.32;1.30;;;27.60;55.20;;;;;;6245404;22;20415;-70
2022/08/01 08:12:27;;;;;;;3.65;1.10;;;27.70;55.20;;;;;;6245861;22;19997;-70
2022/08/01 08:14:52;;;;;;;1.70;1.02;;;27.70;54.40;;;;;;6245652;23;20075;-72
2022/08/01 08:17:18;;;;;;;3.88;1.20;;;27.70;53.90;;;;;;6245783;22;20012;-74
2022/08/01 08:19:44;;;;;;;3.25;1.13;;;27.90;53.50;;;;;;6245526;23;20004;-74
2022/08/01 08:22:10;;;;;;;2.47;1.23;;;27.90;53.00;;;;;;6246816;22;20016;-75
2022/08/01 08:24:36;;;;;;;5.30;1.20;;;27.90;52.20;;;;;;6247782;22;20004;-72
2022/08/01 08:27:03;;;;;;;1.92;1.10;;;27.90;51.90;;;;;;6247290;22;20028;-70
2022/08/01 08:29:31;;;;;;;2.50;1.20;;;27.90;52.10;;;;;;6247247;22;20000;-70
2022/08/01 08:31:58;;;;;;;4.38;1.38;;;28.10;53.10;;;;;;6247320;22;20008;-70
2022/08/01 08:34:25;;;;;;;2.47;1.05;;;28.10;52.40;;;;;;6247205;22;20477;-70
2022/08/01 08:36:51;;;;;;;1.92;1.27;;;28.20;51.10;;;;;;6247396;22;20058;-69
2022/08/01 08:39:17;;;;;;;2.40;1.15;;;28.20;51.20;;;;;;6247129;22;20058;-70
2022/08/01 08:41:43;;;;;;;2.08;1.30;;;28.30;50.70;;;;;;6247169;22;20386;-72
2022/08/01 08:44:09;;;;;;;4.85;1.13;;;28.30;50.70;;;;;;6247155;22;20023;-70
2022/08/01 08:46:42;;;;;;;3.53;1.08;;;28.30;49.60;;;;;;6247275;22;20086;-70
2022/08/01 08:49:09;;;;;;;3.42;1.00;;;28.40;48.90;;;;;;6246834;22;20023;-70
2022/08/01 08:51:38;;;;;;;3.33;1.15;;;28.40;48.30;;;;;;6246960;22;20363;-70
2022/08/01 08:54:05;;;;;;;1.85;1.10;;;28.60;48.70;;;;;;6247214;22;20327;-74
2022/08/01 08:56:34;;;;;;;2.00;1.20;;;28.60;49.40;;;;;;6247063;22;20000;-74
2022/08/01 08:59:01;;;;;;;2.50;1.08;;;28.60;49.00;;;;;;6246913;22;20005;-75
2022/08/01 09:01:27;;;;;;;4.45;1.10;;;28.70;49.00;;;;;;6246756;22;20343;-75
2022/08/01 09:03:53;;;;;;;5.10;1.10;;;28.80;49.10;;;;;;6247110;22;20008;-74
2022/08/01 09:06:20;;;;;;;5.82;1.20;;;28.90;48.70;;;;;;6247284;22;20018;-73
2022/08/01 09:08:46;;;;;;;2.00;1.08;;;29.00;48.40;;;;;;6246798;22;20008;-70
2022/08/01 09:11:11;;;;;;;4.22;1.10;;;29.10;47.80;;;;;;6246741;22;20008;-69
2022/08/01 09:13:37;;;;;;;5.50;0.93;;;29.20;47.40;;;;;;6246894;22;20003;-70
2022/08/01 09:16:05;;;;;;;5.65;1.13;;;29.30;47.30;;;;;;6246657;23;20304;-69
2022/08/01 09:18:40;;;;;;;5.07;1.30;;;29.40;46.90;;;;;;6246715;22;19997;-70
2022/08/01 09:21:19;;;;;;;5.00;1.23;;;29.50;46.40;;;;;;6247111;22;20020;-71
2022/08/01 09:23:49;;;;;;;2.42;0.98;;;29.60;44.90;;;;;;6246677;22;20441;-71
2022/08/01 09:26:35;;;;;;;5.05;0.90;;;29.60;44.10;;;;;;6246938;22;20039;-70
2022/08/01 09:29:07;;;;;;;4.63;1.27;;;29.70;43.40;;;;;;6247112;22;20016;-70
2022/08/01 09:31:41;;;;;;;4.97;1.20;;;29.80;43.50;;;;;;6247113;22;20391;-70
2022/08/01 09:34:09;;;;;;;5.72;1.25;;;29.90;43.80;;;;;;6246256;22;20319;-73
2022/08/01 09:36:46;;;;;;;3.17;1.30;;;30.00;42.50;;;;;;6246416;22;20437;-70
2022/08/01 09:39:13;;;;;;;3.92;1.17;;;30.00;42.40;;;;;;6246770;22;20024;-75
2022/08/01 09:41:40;;;;;;;1.88;1.00;;;30.10;42.60;;;;;;6246448;22;20008;-74
2022/08/01 09:44:05;;;;;;;1.98;0.88;;;30.20;42.10;;;;;;6246658;22;20000;-69
2022/08/01 09:46:31;;;;;;;3.72;0.98;;;30.30;42.00;;;;;;6246712;23;20011;-74
2022/08/01 09:49:04;;;;;;;5.10;0.95;;;30.30;40.90;;;;;;6246569;22;20022;-70
2022/08/01 09:51:34;;;;;;;2.78;0.93;;;30.40;41.30;;;;;;6246743;22;20001;-75
2022/08/01 09:54:01;;;;;;;3.75;1.55;;;30.50;41.40;;;;;;6246842;22;20036;-70
2022/08/01 09:56:35;;;;;;;2.47;1.00;;;30.50;41.60;;;;;;6246830;22;20012;-70
2022/08/01 09:59:00;;;;;;;2.80;1.10;;;30.60;41.40;;;;;;6246395;22;20000;-75
2022/08/01 10:01:27;;;;;;;2.13;1.10;;;30.70;40.00;;;;;;6246158;23;20015;-74
2022/08/01 10:04:07;;;;;;;4.68;1.40;;;30.70;40.10;;;;;;6246636;22;20331;-75
2022/08/01 10:06:33;;;;;;;5.63;0.93;;;30.80;40.00;;;;;;6246656;22;20047;-73
2022/08/01 10:08:59;;;;;;;5.20;1.35;;;30.90;40.20;;;;;;6246707;22;20011;-69
2022/08/01 10:11:25;;;;;;;3.60;1.05;;;30.90;40.40;;;;;;6246356;22;20009;-75
2022/08/01 10:13:52;;;;;;;5.03;1.17;;;31.00;40.20;;;;;;6246141;22;20007;-71
2022/08/01 10:16:19;;;;;;;1.85;1.00;;;31.10;39.80;;;;;;6246053;22;20008;-70
2022/08/01 10:18:45;;;;;;;4.75;1.15;;;31.10;39.70;;;;;;6246452;22;20008;-70
2022/08/01 10:21:11;;;;;;;4.13;1.20;;;31.20;39.70;;;;;;6245739;22;20431;-70
2022/08/01 10:23:38;;;;;;;3.42;0.93;;;31.30;39.90;;;;;;6246451;23;20004;-70
2022/08/01 10:26:10;;;;;;;7.25;0.95;;;31.30;39.50;;;;;;6246642;22;20000;-73
2022/08/01 10:28:36;;;;;;;;;;;31.50;39.80;;;;;;6246411;22;20493;-76
2022/08/01 10:31:03;;;;;;;5.57;1.10;;;31.50;40.30;;;;;;6246083;22;20279;-75
2022/08/01 10:33:30;;;;;;;6.00;1.17;;;31.50;39.60;;;;;;6246448;22;20015;-70
2022/08/01 10:35:57;;;;;;;3.08;1.00;;;31.50;39.20;;;;;;6245987;22;20075;-70
2022/08/01 10:38:23;;;;;;;3.20;1.20;;;31.40;39.40;;;;;;6246163;22;20007;-70
2022/08/01 10:40:49;;;;;;;2.10;0.90;;;31.40;39.90;;;;;;6246294;23;20016;-70
2022/08/01 10:43:16;;;;;;;6.20;1.08;;;31.40;39.80;;;;;;6245742;22;20008;-70
2022/08/01 10:45:43;;;;;;;2.80;1.08;;;31.50;39.80;;;;;;6245856;22;20079;-71
2022/08/01 10:48:21;;;;;;;4.13;1.30;;;31.50;39.40;;;;;;6245878;22;20004;-70
2022/08/01 10:50:49;;;;;;;2.28;1.20;;;31.50;40.00;;;;;;6245997;22;20000;-71
2022/08/01 10:53:23;;;;;;;4.60;0.98;;;31.60;39.90;;;;;;6245953;22;19996;-69
2022/08/01 10:55:52;;;;;;;2.67;0.90;;;31.70;39.50;;;;;;6246062;22;20000;-70
2022/08/01 10:58:22;;;;;;;2.15;0.90;;;31.70;39.10;;;;;;6245891;22;20494;-71
2022/08/01 11:00:48;;;;;;;3.65;0.80;;;31.80;39.30;;;;;;6246071;23;20012;-71
2022/08/01 11:03:13;;;;;;;1.98;0.80;;;31.80;39.80;;;;;;6246185;22;20036;-70
2022/08/01 11:05:43;;;;;;;1.42;0.93;;;31.90;39.30;;;;;;6246041;23;20419;-70
2022/08/01 11:08:22;;;;;;;3.92;1.08;;;32.00;38.40;;;;;;6245666;22;20078;-70
2022/08/01 11:10:48;;;;;;;3.80;1.40;;;32.10;38.30;;;;;;6246073;22;20012;-70
2022/08/01 11:13:14;;;;;;;4.55;1.05;;;32.10;38.10;;;;;;6245781;23;20046;-73
2022/08/01 11:18:26;;;;;;;3.03;1.33;;;32.30;38.60;;;;;;6245685;22;20015;-73
2022/08/01 11:21:00;;;;;;;6.75;1.02;;;32.30;39.20;;;;;;6245449;23;20083;-74
2022/08/01 11:23:31;;;;;;;2.58;1.00;;;32.40;38.90;;;;;;6245830;22;20365;-74
2022/08/01 11:26:02;;;;;;;3.80;0.90;;;32.40;38.10;;;;;;6246141;22;20008;-73
2022/08/01 11:28:29;;;;;;;4.32;1.10;;;32.40;37.90;;;;;;6245540;23;20016;-70
2022/08/01 11:31:01;;;;;;;3.83;1.10;;;32.50;38.20;;;;;;6245551;23;20004;-71
2022/08/01 11:33:41;;;;;;;;;;;32.50;37.50;;;;;;6246050;23;20094;-70
2022/08/01 11:36:10;;;;;;;1.65;0.88;;;32.60;37.40;;;;;;6245734;23;19906;-70
2022/08/01 11:38:37;;;;;;;3.83;0.90;;;32.60;37.40;;;;;;6245795;23;20000;-73
2022/08/01 11:41:14;;;;;;;2.42;0.80;;;32.60;37.40;;;;;;6246037;22;20020;-70
2022/08/01 11:43:58;;;;;;;3.60;0.90;;;32.60;36.90;;;;;;6245253;23;20027;-71
2022/08/01 11:47:03;;;;;;;1.48;0.77;;;32.70;36.40;;;;;;6245589;23;19996;-75
2022/08/01 11:49:45;;;;;;;1.30;0.80;;;32.80;35.90;;;;;;6245813;22;19996;-71
2022/08/01 11:52:11;;;;;;;12.10;1.83;;;32.80;35.20;;;;;;6246023;22;20146;-75
2022/08/01 11:54:39;;;;;;;7.20;1.10;;;32.90;35.20;;;;;;6245627;23;20419;-71
2022/08/01 11:57:07;;;;;;;6.88;1.10;;;32.90;35.60;;;;;;6246742;22;20453;-69
2022/08/01 11:59:54;;;;;;;1.73;0.90;;;32.90;35.50;;;;;;6247599;22;19996;-75
2022/08/01 12:02:31;;;;;;;9.13;0.82;;;33.00;35.70;;;;;;6247842;22;20016;-75
2022/08/01 12:05:06;;;;;;;8.70;1.05;;;33.00;35.90;;;;;;6247792;22;20012;-70
2022/08/01 12:07:33;;;;;;;4.20;0.80;;;33.00;35.60;;;;;;6247872;22;20058;-75
2022/08/01 12:10:00;;;;;;;3.70;0.90;;;33.00;35.70;;;;;;6247958;22;20435;-75
2022/08/01 12:12:27;;;;;;;1.63;0.80;;;33.10;35.60;;;;;;6247432;22;20004;-70
2022/08/01 12:14:58;;;;;;;1.30;0.82;;;33.10;35.60;;;;;;6247432;22;20439;-70
2022/08/01 12:17:33;;;;;;;1.27;0.60;;;33.10;35.40;;;;;;6247793;22;20015;-70
2022/08/01 12:19:59;;;;;;;2.88;0.60;;;33.10;34.80;;;;;;6247396;22;20078;-71
2022/08/01 12:22:25;;;;;;;4.43;1.02;;;33.10;35.00;;;;;;6247614;23;20055;-71
2022/08/01 12:24:51;;;;;;;3.53;0.90;;;33.10;35.20;;;;;;6247109;22;20038;-70
2022/08/01 12:27:28;;;;;;;2.97;0.70;;;33.10;34.10;;;;;;6246926;22;20078;-71
2022/08/01 12:29:55;;;;;;;0.90;0.50;;;33.10;34.20;;;;;;6247470;22;20004;-75
2022/08/01 12:32:35;;;;;;;2.38;0.70;;;33.10;33.30;;;;;;6247411;22;20004;-71
2022/08/01 12:35:11;;;;;;;3.60;1.10;;;33.10;33.60;;;;;;6247261;22;20079;-75
2022/08/01 12:37:39;;;;;;;3.90;0.73;;;33.10;34.10;;;;;;6247434;22;20062;-75
2022/08/01 12:40:17;;;;;;;2.47;0.57;;;33.20;33.50;;;;;;6247573;22;20016;-75
2022/08/01 12:42:46;;;;;;;1.55;0.52;;;33.20;32.80;;;;;;6247236;22;20496;-70
2022/08/01 12:45:17;;;;;;;1.17;0.60;;;33.20;33.10;;;;;;6247303;22;20417;-71
2022/08/01 12:47:43;;;;;;;2.95;0.70;;;33.20;33.20;;;;;;6247300;22;20011;-70
2022/08/01 12:50:21;;;;;;;2.13;0.70;;;33.30;33.00;;;;;;6247098;22;19996;-71
2022/08/01 12:52:48;;;;;;;1.20;0.80;;;33.30;33.10;;;;;;6247185;22;20010;-70
2022/08/01 12:55:18;;;;;;;1.67;0.73;;;33.30;33.40;;;;;;6247514;22;20318;-70
2022/08/01 12:57:52;;;;;;;2.90;0.70;;;33.30;32.70;;;;;;6247149;22;20079;-70